Hovedside
METAR-TAF:

METAR-TAF

Lufthavner :

El Hierro lufthavn

El Hierro, Spania

breddegrad: 27-49N, lengdegrad: 017-53W, høyde over havet: 32 m

Gjeldene værobservasjon

Denne rapporten ble laget for 39 minutter siden, klokken 10:00 UTC
Vind 10 kt fra Nord, skiftende mellom Nord-nordvest og Nord-nordøst
Temperatur 22°C
Luftfuktighet 69%
Trykk 1018 hPa
Sikt 10 km eller mer
Få skyer i en høyde av 2200 ft

METAR: GCHI 191000Z 36010KT 330V030 9999 FEW022 22/16 Q1018

Tid: 11:39 (10:39 UTC)

Varsel

Denne rapporten ble laget for 2 timer og 39 minutter siden, klokken 08:00 UTC
Varsel gyldig fra 19. klokken 09 UTC til 20. klokken 09 UTC
Vind 12 kt fra Nord-nordvest
Sikt 10 km eller mer
Spredte skyer i en høyde av 2500 ft
Blir
fra 19. klokken 16 UTC til 19. klokken 19 UTC
Vind 10 kt fra Nordøst

TAF: GCHI 190800Z 1909/2009 33012KT 9999 SCT025 TX22/1914Z TN19/2006Z BECMG 1916/1919 04010KT

Værobservasjoner og værvarsel for over 4000 flyplasser (METAR- og TAF-rapporter).

Tilgjengelige stasjoner er representert av de røde og gule prikkene på kartet.

Hold musepekeren over prikken for å se navnet på stasjonen.

Klikk så for å se værobservasjoner og -varsler.

For å forandre kartet kan du klikke på den grønne knappen med svart kryss for å zoome inn, på den grønne knappen med strek for å zoome ut, eller på de grønne pilene for å se tilstøtende kart.


METAR-TAF: